createdAt,value
2024-02-06T00:02:03.559Z,8.18
2024-02-06T00:04:31.035Z,8.90
2024-02-06T00:06:58.554Z,8.65
2024-02-06T00:09:25.889Z,8.73
2024-02-06T00:11:53.286Z,11.63
2024-02-06T00:14:20.640Z,12.55
2024-02-06T00:16:48.400Z,9.73
2024-02-06T00:19:15.800Z,8.20
2024-02-06T00:21:43.147Z,10.10
2024-02-06T00:24:10.401Z,8.50
2024-02-06T00:26:37.849Z,10.27
2024-02-06T00:29:05.185Z,10.07
2024-02-06T00:31:32.584Z,9.63
2024-02-06T00:34:00.034Z,10.93
2024-02-06T00:36:27.583Z,8.50
2024-02-06T00:38:54.950Z,8.75
2024-02-06T00:41:22.233Z,7.45
2024-02-06T00:43:49.567Z,12.48
2024-02-06T00:46:17.234Z,10.07
2024-02-06T00:48:44.766Z,10.23
2024-02-06T00:51:12.169Z,9.15
2024-02-06T00:53:39.462Z,9.70
2024-02-06T00:56:07.195Z,8.80
2024-02-06T00:58:34.719Z,12.10
2024-02-06T01:01:02.444Z,11.20
2024-02-06T01:03:29.818Z,9.98
2024-02-06T01:05:57.802Z,10.65
2024-02-06T01:08:25.365Z,10.45
2024-02-06T01:10:52.777Z,10.50
2024-02-06T01:13:20.024Z,7.72
2024-02-06T01:15:47.457Z,11.82
2024-02-06T01:18:15.661Z,7.82
2024-02-06T01:20:43.042Z,8.57
2024-02-06T01:23:10.402Z,8.37
2024-02-06T01:25:38.011Z,9.38
2024-02-06T01:28:06.017Z,9.20
2024-02-06T01:30:35.087Z,8.30
2024-02-06T01:33:02.494Z,8.13
2024-02-06T01:35:30.116Z,9.57
2024-02-06T01:37:57.369Z,7.50
2024-02-06T01:40:25.225Z,8.52
2024-02-06T01:42:52.656Z,7.93
2024-02-06T01:45:20.130Z,9.02
2024-02-06T01:47:47.398Z,8.40
2024-02-06T01:50:14.911Z,12.10
2024-02-06T01:52:42.321Z,7.70
2024-02-06T01:55:09.772Z,9.23
2024-02-06T01:57:37.723Z,7.63
2024-02-06T02:00:05.794Z,9.60
2024-02-06T02:02:39.602Z,8.90
2024-02-06T02:05:08.253Z,8.00
2024-02-06T02:07:36.435Z,8.93
2024-02-06T02:10:04.770Z,7.20
2024-02-06T02:12:36.515Z,7.53
2024-02-06T02:15:04.733Z,7.80
2024-02-06T02:17:32.108Z,8.70
2024-02-06T02:19:59.530Z,8.77
2024-02-06T02:22:26.954Z,7.65
2024-02-06T02:24:54.366Z,9.10
2024-02-06T02:27:21.702Z,8.02
2024-02-06T02:29:51.412Z,9.18
2024-02-06T02:32:18.975Z,9.80
2024-02-06T02:34:50.039Z,9.27
2024-02-06T02:37:17.563Z,7.33
2024-02-06T02:39:48.161Z,7.97
2024-02-06T02:42:17.619Z,7.72
2024-02-06T02:44:44.896Z,9.43
2024-02-06T02:47:12.242Z,10.35
2024-02-06T02:49:39.724Z,7.20
2024-02-06T02:52:07.177Z,7.57
2024-02-06T02:54:34.476Z,9.13
2024-02-06T02:57:01.838Z,7.55
2024-02-06T02:59:29.093Z,10.30
2024-02-06T03:01:56.464Z,8.07
2024-02-06T03:04:23.825Z,9.70
2024-02-06T03:06:52.860Z,7.88
2024-02-06T03:09:20.504Z,8.52
2024-02-06T03:11:47.838Z,10.48
2024-02-06T03:14:15.111Z,11.37
2024-02-06T03:16:42.499Z,8.05
2024-02-06T03:19:09.935Z,8.55
2024-02-06T03:21:37.300Z,9.50
2024-02-06T03:24:04.784Z,9.63
2024-02-06T03:26:32.239Z,8.77
2024-02-06T03:28:59.528Z,10.38
2024-02-06T03:31:26.909Z,8.25
2024-02-06T03:33:54.305Z,9.65
2024-02-06T03:36:21.997Z,8.25
2024-02-06T03:38:49.313Z,6.80
2024-02-06T03:41:16.698Z,9.55
2024-02-06T03:43:44.978Z,8.35
2024-02-06T03:46:12.365Z,8.77
2024-02-06T03:48:39.807Z,9.02
2024-02-06T03:51:07.179Z,9.23
2024-02-06T03:53:34.640Z,10.00
2024-02-06T03:56:02.056Z,9.50
2024-02-06T03:58:29.396Z,9.25
2024-02-06T04:00:56.998Z,7.60
2024-02-06T04:03:24.532Z,8.33
2024-02-06T04:05:51.958Z,10.30
2024-02-06T04:08:19.231Z,10.93
2024-02-06T04:10:46.595Z,8.95
2024-02-06T04:13:14.032Z,10.27
2024-02-06T04:15:41.483Z,10.60
2024-02-06T04:18:08.963Z,23.17
2024-02-06T04:20:36.432Z,15.80
2024-02-06T04:23:04.559Z,11.27
2024-02-06T04:25:32.169Z,14.25
2024-02-06T04:27:59.580Z,10.03
2024-02-06T04:30:27.040Z,17.27
2024-02-06T04:32:54.892Z,15.20
2024-02-06T04:35:22.453Z,15.80
2024-02-06T04:37:49.917Z,14.48
2024-02-06T04:40:18.488Z,15.03
2024-02-06T04:42:47.152Z,15.70
2024-02-06T04:45:14.430Z,12.18
2024-02-06T04:47:41.887Z,17.60
2024-02-06T04:50:09.852Z,18.92
2024-02-06T04:52:41.067Z,16.83
2024-02-06T04:55:10.964Z,18.27
2024-02-06T04:57:38.675Z,17.33
2024-02-06T05:00:13.532Z,35.33
2024-02-06T05:02:41.098Z,22.77
2024-02-06T05:05:08.691Z,17.93
2024-02-06T05:07:36.145Z,20.27
2024-02-06T05:10:03.753Z,18.48
2024-02-06T05:12:31.291Z,14.18
2024-02-06T05:14:58.599Z,17.92
2024-02-06T05:17:27.794Z,17.10
2024-02-06T05:19:55.253Z,17.25
2024-02-06T05:22:22.801Z,13.07
2024-02-06T05:24:50.112Z,14.85
2024-02-06T05:27:17.795Z,18.50
2024-02-06T05:29:45.183Z,15.23
2024-02-06T05:32:12.649Z,17.35
2024-02-06T05:34:40.253Z,15.52
2024-02-06T05:37:07.761Z,16.33
2024-02-06T05:39:35.632Z,17.10
2024-02-06T05:42:04.443Z,17.73
2024-02-06T05:44:31.769Z,17.55
2024-02-06T05:46:59.232Z,20.38
2024-02-06T05:49:26.626Z,18.55
2024-02-06T05:51:54.081Z,16.88
2024-02-06T05:54:21.459Z,20.57
2024-02-06T05:56:49.384Z,24.10
2024-02-06T05:59:16.689Z,22.35
2024-02-06T06:01:44.524Z,22.25
2024-02-06T06:04:12.204Z,23.33
2024-02-06T06:06:40.245Z,20.83
2024-02-06T06:09:08.570Z,16.95
2024-02-06T06:11:36.602Z,16.10
2024-02-06T06:14:04.028Z,17.40
2024-02-06T06:16:31.661Z,16.38
2024-02-06T06:19:02.519Z,16.80
2024-02-06T06:21:31.006Z,21.77
2024-02-06T06:23:58.333Z,24.30
2024-02-06T06:26:30.997Z,17.60
2024-02-06T06:28:58.525Z,13.57
2024-02-06T06:31:26.213Z,18.90
2024-02-06T06:33:54.535Z,16.88
2024-02-06T06:36:22.267Z,19.33
2024-02-06T06:38:49.838Z,18.23
2024-02-06T06:41:19.428Z,18.70
2024-02-06T06:43:47.149Z,15.37
2024-02-06T06:46:15.613Z,17.40
2024-02-06T06:48:43.274Z,18.67
2024-02-06T06:51:10.850Z,20.00
2024-02-06T06:53:38.455Z,16.90
2024-02-06T06:56:06.800Z,18.03
2024-02-06T06:58:34.898Z,23.05
2024-02-06T07:01:03.287Z,17.80
2024-02-06T07:03:57.861Z,19.50
2024-02-06T07:06:26.684Z,21.45
2024-02-06T07:08:55.419Z,17.93
2024-02-06T07:11:24.269Z,15.35
2024-02-06T07:13:52.121Z,16.75
2024-02-06T07:16:19.799Z,17.88
2024-02-06T07:18:51.514Z,16.27
2024-02-06T07:21:19.225Z,16.50
2024-02-06T07:23:49.065Z,15.30
2024-02-06T07:26:17.351Z,18.85
2024-02-06T07:28:45.548Z,15.40
2024-02-06T07:31:14.476Z,15.50
2024-02-06T07:33:42.600Z,18.40
2024-02-06T07:36:11.058Z,30.20
2024-02-06T07:38:38.685Z,28.65
2024-02-06T07:43:47.691Z,17.85
2024-02-06T07:46:15.396Z,17.30
2024-02-06T07:48:43.762Z,23.65
2024-02-06T07:51:13.308Z,34.03
2024-02-06T07:53:43.798Z,38.65
2024-02-06T07:56:11.411Z,18.58
2024-02-06T07:58:42.625Z,25.97
2024-02-06T08:01:13.332Z,23.33
2024-02-06T08:03:41.256Z,21.58
2024-02-06T08:06:17.348Z,12.77
2024-02-06T08:08:46.481Z,14.05
2024-02-06T08:11:15.309Z,17.30
2024-02-06T08:13:46.357Z,13.13
2024-02-06T08:16:20.183Z,12.45
2024-02-06T08:18:50.377Z,16.90
2024-02-06T08:21:18.408Z,15.25
2024-02-06T08:23:49.659Z,16.20
2024-02-06T08:26:23.601Z,16.38
2024-02-06T08:29:01.578Z,19.52
2024-02-06T08:31:31.999Z,17.17
2024-02-06T08:34:00.848Z,16.27
2024-02-06T08:36:34.629Z,12.73
2024-02-06T08:39:04.253Z,12.23
2024-02-06T08:41:35.472Z,15.73
2024-02-06T08:44:04.192Z,15.80
2024-02-06T08:46:31.826Z,17.70
2024-02-06T08:49:01.118Z,12.77
2024-02-06T08:51:28.828Z,16.30
2024-02-06T08:53:56.910Z,13.35
2024-02-06T08:56:26.666Z,13.48
2024-02-06T08:58:55.152Z,15.55
2024-02-06T09:01:24.772Z,18.23
2024-02-06T09:04:03.263Z,18.00
2024-02-06T09:06:52.598Z,18.48
2024-02-06T09:09:25.595Z,15.45
2024-02-06T09:11:56.269Z,14.18
2024-02-06T09:14:26.028Z,12.43
2024-02-06T09:16:59.622Z,13.85
2024-02-06T09:19:27.734Z,13.40
2024-02-06T09:21:55.757Z,12.88
2024-02-06T09:24:23.867Z,10.18
2024-02-06T09:26:53.104Z,14.57
2024-02-06T09:29:20.610Z,10.20
2024-02-06T09:31:51.435Z,12.30
2024-02-06T09:34:19.333Z,13.80
2024-02-06T09:36:46.873Z,11.73
2024-02-06T09:39:14.709Z,10.77
2024-02-06T09:41:42.494Z,12.68
2024-02-06T09:44:11.092Z,16.80
2024-02-06T09:46:39.672Z,10.68
2024-02-06T09:49:08.128Z,11.68
2024-02-06T09:51:40.736Z,14.67
2024-02-06T09:54:08.946Z,14.63
2024-02-06T09:56:36.590Z,12.00
2024-02-06T09:59:07.463Z,11.48
2024-02-06T10:01:39.866Z,10.30
2024-02-06T10:04:07.708Z,10.27
2024-02-06T10:06:45.402Z,9.27
2024-02-06T10:09:25.755Z,12.23
2024-02-06T10:11:55.957Z,12.25
2024-02-06T10:14:25.356Z,11.07
2024-02-06T10:16:53.976Z,18.30
2024-02-06T10:19:32.651Z,13.57
2024-02-06T10:22:02.116Z,11.40
2024-02-06T10:24:32.862Z,15.10
2024-02-06T10:27:06.534Z,15.70
2024-02-06T10:29:36.640Z,13.10
2024-02-06T10:32:14.475Z,12.27
2024-02-06T10:34:44.986Z,12.48
2024-02-06T10:37:16.239Z,11.13
2024-02-06T10:39:43.997Z,12.65
2024-02-06T10:42:51.555Z,13.83
2024-02-06T10:45:03.828Z,8.63
2024-02-06T10:47:32.520Z,9.63
2024-02-06T10:50:07.676Z,11.40
2024-02-06T10:52:36.011Z,10.30
2024-02-06T10:55:05.158Z,11.07
2024-02-06T10:57:33.942Z,10.98
2024-02-06T11:00:09.555Z,10.98
2024-02-06T11:02:37.543Z,8.88
2024-02-06T11:05:07.033Z,10.48
2024-02-06T11:07:44.126Z,9.27
2024-02-06T11:10:21.925Z,9.82
2024-02-06T11:13:00.575Z,9.60
2024-02-06T11:15:46.020Z,8.93
2024-02-06T11:18:19.075Z,9.32
2024-02-06T11:20:55.960Z,9.83
2024-02-06T11:23:24.264Z,13.77
2024-02-06T11:25:52.007Z,8.52
2024-02-06T11:28:19.794Z,8.57
2024-02-06T11:30:50.062Z,8.60
2024-02-06T11:33:20.896Z,10.67
2024-02-06T11:35:50.386Z,8.13
2024-02-06T11:38:28.470Z,8.32
2024-02-06T11:40:57.054Z,7.85
2024-02-06T11:43:26.657Z,9.52
2024-02-06T11:46:01.484Z,9.17
2024-02-06T11:48:30.650Z,7.03
2024-02-06T11:50:59.583Z,8.30
2024-02-06T11:53:30.678Z,8.18
2024-02-06T11:56:06.463Z,11.18
2024-02-06T11:58:40.805Z,7.97
2024-02-06T12:01:18.149Z,8.00
2024-02-06T12:03:55.495Z,9.25
2024-02-06T12:06:23.249Z,7.45
2024-02-06T12:09:10.217Z,8.93
2024-02-06T12:11:48.962Z,9.20
2024-02-06T12:14:16.757Z,9.05
2024-02-06T12:16:55.998Z,6.47
2024-02-06T12:19:28.494Z,7.40
2024-02-06T12:22:05.525Z,9.02
2024-02-06T12:24:33.669Z,9.27
2024-02-06T12:27:08.097Z,11.07
2024-02-06T12:29:43.810Z,10.82
2024-02-06T12:32:12.032Z,8.60
2024-02-06T12:34:40.226Z,8.00
2024-02-06T12:37:08.173Z,8.63
2024-02-06T12:39:36.056Z,7.90
2024-02-06T12:42:08.522Z,10.05
2024-02-06T12:44:47.978Z,8.43
2024-02-06T12:47:18.155Z,7.78
2024-02-06T12:49:46.655Z,7.20
2024-02-06T12:52:20.709Z,9.80
2024-02-06T12:54:52.756Z,8.13
2024-02-06T12:57:21.292Z,9.48
2024-02-06T12:59:50.872Z,10.13
2024-02-06T13:02:19.786Z,9.27
2024-02-06T13:04:47.484Z,7.40
2024-02-06T13:07:22.593Z,9.52
2024-02-06T13:10:00.677Z,8.85
2024-02-06T13:12:28.454Z,8.63
2024-02-06T13:14:58.537Z,10.73
2024-02-06T13:17:27.660Z,10.48
2024-02-06T13:20:11.359Z,9.32
2024-02-06T13:22:40.690Z,8.48
2024-02-06T13:25:09.168Z,9.90
2024-02-06T13:27:36.920Z,11.73
2024-02-06T13:30:04.906Z,10.35
2024-02-06T13:32:32.356Z,9.23
2024-02-06T13:35:00.587Z,9.85
2024-02-06T13:37:28.246Z,10.27
2024-02-06T13:39:55.720Z,10.13
2024-02-06T13:42:27.810Z,10.88
2024-02-06T13:44:55.610Z,9.15
2024-02-06T13:47:23.073Z,9.10
2024-02-06T13:49:50.605Z,8.25
2024-02-06T13:52:18.455Z,8.93
2024-02-06T13:54:48.919Z,10.32
2024-02-06T13:57:16.457Z,9.25
2024-02-06T13:59:43.822Z,9.80
2024-02-06T14:02:11.907Z,8.18
2024-02-06T14:04:40.730Z,15.10
2024-02-06T14:07:14.004Z,11.63
2024-02-06T14:09:41.668Z,8.77
2024-02-06T14:12:09.425Z,10.88
2024-02-06T14:14:36.976Z,11.18
2024-02-06T14:17:04.811Z,10.23
2024-02-06T14:19:32.304Z,12.02
2024-02-06T14:21:59.760Z,15.55
2024-02-06T14:24:27.675Z,13.93
2024-02-06T14:26:55.259Z,16.30
2024-02-06T14:29:24.581Z,15.47
2024-02-06T14:31:52.980Z,15.65
2024-02-06T14:34:20.614Z,13.52
2024-02-06T14:36:48.454Z,13.18
2024-02-06T14:39:16.265Z,13.77
2024-02-06T14:41:43.794Z,14.27
2024-02-06T14:44:11.785Z,13.85
2024-02-06T14:46:39.364Z,16.35
2024-02-06T14:49:06.970Z,14.93
2024-02-06T14:51:35.272Z,15.35
2024-02-06T14:54:02.964Z,17.37
2024-02-06T14:56:30.470Z,15.00
2024-02-06T14:58:57.960Z,15.82
2024-02-06T15:01:25.459Z,15.77
2024-02-06T15:03:57.088Z,19.20
2024-02-06T15:06:25.132Z,16.07
2024-02-06T15:08:55.074Z,16.05
2024-02-06T15:11:23.746Z,27.13
2024-02-06T15:13:51.283Z,41.03
2024-02-06T15:16:18.937Z,51.80
2024-02-06T15:18:46.512Z,21.57
2024-02-06T15:21:14.548Z,18.83
2024-02-06T15:23:46.503Z,21.00
2024-02-06T15:26:14.079Z,15.45
2024-02-06T15:28:41.563Z,19.23
2024-02-06T15:31:09.429Z,19.77
2024-02-06T15:33:36.965Z,21.55
2024-02-06T15:36:04.610Z,18.60
2024-02-06T15:38:32.608Z,17.33
2024-02-06T15:41:02.481Z,34.55
2024-02-06T15:43:30.158Z,45.40
2024-02-06T15:45:57.604Z,30.42
2024-02-06T15:48:25.195Z,41.40
2024-02-06T15:50:52.633Z,19.52
2024-02-06T15:53:20.057Z,22.23
2024-02-06T15:55:48.225Z,17.90
2024-02-06T15:58:15.821Z,18.10
2024-02-06T16:00:43.421Z,21.63
2024-02-06T16:03:11.077Z,21.23
2024-02-06T16:05:39.242Z,21.45
2024-02-06T16:08:08.097Z,19.80
2024-02-06T16:10:35.629Z,19.15
2024-02-06T16:13:03.184Z,16.70
2024-02-06T16:15:30.553Z,19.58
2024-02-06T16:17:58.207Z,37.70
2024-02-06T16:20:25.851Z,40.03
2024-02-06T16:22:53.396Z,49.55
2024-02-06T16:25:25.415Z,55.10
2024-02-06T16:27:53.993Z,58.03
2024-02-06T16:30:21.251Z,63.22
2024-02-06T16:32:49.407Z,32.57
2024-02-06T16:35:16.989Z,31.42
2024-02-06T16:37:45.178Z,34.40
2024-02-06T16:40:14.732Z,38.47
2024-02-06T16:42:44.801Z,33.67
2024-02-06T16:45:13.185Z,51.73
2024-02-06T16:47:40.823Z,54.95
2024-02-06T16:50:08.902Z,47.17
2024-02-06T16:52:36.501Z,76.85
2024-02-06T16:55:06.892Z,60.22
2024-02-06T16:57:34.729Z,53.60
2024-02-06T17:00:04.750Z,44.78
2024-02-06T17:02:32.317Z,35.35
2024-02-06T17:04:59.924Z,36.75
2024-02-06T17:07:28.906Z,31.90
2024-02-06T17:09:56.431Z,30.83
2024-02-06T17:12:23.840Z,29.17
2024-02-06T17:14:51.230Z,32.17
2024-02-06T17:17:18.974Z,35.03
2024-02-06T17:19:46.701Z,28.58
2024-02-06T17:22:15.255Z,29.87
2024-02-06T17:24:43.980Z,32.58
2024-02-06T17:27:11.536Z,28.83
2024-02-06T17:29:38.857Z,25.15
2024-02-06T17:32:06.507Z,27.88
2024-02-06T17:34:34.012Z,26.63
2024-02-06T17:37:01.785Z,30.08
2024-02-06T17:39:29.305Z,27.17
2024-02-06T17:41:56.874Z,32.28
2024-02-06T17:44:24.173Z,30.48
2024-02-06T17:46:51.887Z,30.63
2024-02-06T17:49:19.411Z,33.83
2024-02-06T17:51:46.866Z,29.88
2024-02-06T17:54:14.369Z,26.48
2024-02-06T17:56:42.043Z,30.15
2024-02-06T17:59:09.451Z,29.03
2024-02-06T18:01:38.457Z,27.42
2024-02-06T18:04:07.096Z,29.77
2024-02-06T18:06:34.580Z,29.70
2024-02-06T18:09:02.020Z,35.03
2024-02-06T18:11:29.418Z,29.70
2024-02-06T18:13:56.800Z,28.20
2024-02-06T18:16:24.641Z,25.75
2024-02-06T18:18:52.020Z,27.75
2024-02-06T18:21:19.756Z,25.80
2024-02-06T18:23:47.085Z,25.40
2024-02-06T18:26:14.535Z,22.30
2024-02-06T18:28:41.909Z,23.77
2024-02-06T18:31:13.161Z,26.42
2024-02-06T18:33:40.690Z,30.42
2024-02-06T18:36:11.365Z,23.70
2024-02-06T18:38:38.797Z,22.00
2024-02-06T18:41:07.049Z,23.60
2024-02-06T18:43:36.078Z,19.35
2024-02-06T18:46:03.682Z,18.02
2024-02-06T18:48:31.131Z,13.97
2024-02-06T18:50:58.574Z,12.88
2024-02-06T18:53:26.012Z,16.98
2024-02-06T18:55:53.503Z,14.95
2024-02-06T18:58:20.960Z,10.73
2024-02-06T19:00:48.276Z,12.97
2024-02-06T19:03:15.735Z,11.40
2024-02-06T19:05:43.103Z,13.85
2024-02-06T19:08:11.928Z,10.32
2024-02-06T19:10:39.304Z,10.88
2024-02-06T19:13:06.838Z,13.17
2024-02-06T19:15:34.179Z,12.75
2024-02-06T19:18:01.704Z,12.77
2024-02-06T19:20:29.169Z,9.27
2024-02-06T19:22:56.698Z,10.18
2024-02-06T19:25:24.466Z,12.13
2024-02-06T19:27:51.961Z,10.98
2024-02-06T19:30:19.445Z,9.75
2024-02-06T19:32:46.921Z,10.25
2024-02-06T19:35:14.616Z,11.18
2024-02-06T19:37:42.228Z,12.90
2024-02-06T19:40:13.342Z,11.52
2024-02-06T19:42:41.012Z,7.43
2024-02-06T19:45:08.678Z,10.27
2024-02-06T19:47:36.535Z,14.40
2024-02-06T19:50:05.086Z,10.97
2024-02-06T19:52:32.574Z,12.32
2024-02-06T19:55:00.043Z,11.27
2024-02-06T19:57:30.167Z,9.43
2024-02-06T19:59:58.502Z,12.80
2024-02-06T20:02:25.934Z,12.93
2024-02-06T20:04:53.641Z,13.43
2024-02-06T20:07:21.850Z,14.55
2024-02-06T20:09:49.320Z,15.00
2024-02-06T20:12:16.606Z,16.95
2024-02-06T20:14:46.994Z,15.10
2024-02-06T20:17:14.317Z,17.13
2024-02-06T20:19:41.777Z,15.90
2024-02-06T20:22:09.294Z,14.77
2024-02-06T20:24:36.616Z,18.55
2024-02-06T20:27:04.410Z,17.17
2024-02-06T20:29:32.969Z,17.65
2024-02-06T20:32:01.233Z,18.60
2024-02-06T20:34:28.867Z,15.98
2024-02-06T20:36:56.433Z,16.35
2024-02-06T20:39:23.794Z,12.60
2024-02-06T20:41:51.154Z,18.33
2024-02-06T20:44:18.486Z,17.55
2024-02-06T20:46:45.905Z,14.88
2024-02-06T20:49:13.415Z,14.32
2024-02-06T20:51:40.994Z,12.77
2024-02-06T20:54:08.314Z,13.45
2024-02-06T20:56:35.690Z,15.07
2024-02-06T20:59:02.935Z,14.00
2024-02-06T21:01:30.368Z,14.77
2024-02-06T21:03:57.773Z,14.23
2024-02-06T21:06:25.196Z,15.63
2024-02-06T21:08:52.474Z,13.30
2024-02-06T21:11:19.935Z,13.32
2024-02-06T21:13:47.399Z,16.23
2024-02-06T21:16:14.886Z,18.53
2024-02-06T21:18:44.769Z,14.20
2024-02-06T21:21:12.995Z,23.50
2024-02-06T21:23:40.613Z,16.38
2024-02-06T21:26:08.181Z,21.23
2024-02-06T21:28:35.844Z,16.67
2024-02-06T21:31:03.858Z,17.90
2024-02-06T21:33:33.618Z,19.65
2024-02-06T21:36:02.096Z,17.80
2024-02-06T21:38:29.500Z,19.58
2024-02-06T21:40:58.719Z,14.83
2024-02-06T21:43:26.245Z,17.83
2024-02-06T21:45:53.640Z,19.15
2024-02-06T21:48:21.479Z,17.48
2024-02-06T21:50:49.063Z,19.40
2024-02-06T21:53:16.373Z,17.57
2024-02-06T21:55:44.548Z,16.27
2024-02-06T21:58:12.649Z,18.58
2024-02-06T22:00:40.180Z,18.45
2024-02-06T22:03:07.481Z,16.05
2024-02-06T22:05:35.067Z,18.40
2024-02-06T22:08:02.562Z,19.83
2024-02-06T22:10:32.125Z,25.55
2024-02-06T22:12:59.409Z,20.15
2024-02-06T22:15:26.717Z,19.95
2024-02-06T22:17:54.034Z,17.53
2024-02-06T22:20:21.610Z,18.50
2024-02-06T22:22:51.658Z,15.50
2024-02-06T22:25:21.350Z,19.65
2024-02-06T22:27:48.658Z,20.98
2024-02-06T22:30:16.333Z,20.10
2024-02-06T22:32:43.790Z,22.25
2024-02-06T22:35:11.268Z,18.77
2024-02-06T22:37:38.802Z,15.77
2024-02-06T22:40:06.599Z,17.48
2024-02-06T22:42:33.860Z,19.07
2024-02-06T22:45:01.415Z,16.67
2024-02-06T22:47:28.824Z,17.83
2024-02-06T22:49:56.253Z,18.60
2024-02-06T22:52:23.650Z,20.40
2024-02-06T22:54:51.136Z,20.30
2024-02-06T22:57:18.379Z,20.67
2024-02-06T22:59:45.758Z,18.20
2024-02-06T23:02:13.194Z,18.17
2024-02-06T23:04:40.636Z,18.02
2024-02-06T23:07:08.086Z,18.27
2024-02-06T23:09:35.529Z,20.52
2024-02-06T23:12:02.873Z,15.88
2024-02-06T23:14:30.274Z,18.23
2024-02-06T23:16:58.722Z,21.20
2024-02-06T23:19:27.869Z,21.73
2024-02-06T23:21:55.149Z,19.17
2024-02-06T23:24:22.922Z,20.60
2024-02-06T23:26:50.225Z,22.77
2024-02-06T23:29:17.553Z,19.55
2024-02-06T23:31:45.216Z,19.77
2024-02-06T23:34:13.110Z,19.08
2024-02-06T23:36:40.447Z,20.02
2024-02-06T23:39:15.611Z,19.52
2024-02-06T23:41:44.317Z,21.98
2024-02-06T23:44:12.121Z,22.20
2024-02-06T23:46:39.697Z,20.83
2024-02-06T23:49:09.027Z,21.17
2024-02-06T23:51:37.579Z,19.55
2024-02-06T23:54:05.145Z,22.15
2024-02-06T23:56:32.556Z,20.47
2024-02-06T23:58:59.857Z,23.58
